Father Pat — WDG2791 — position and weather

sailwx.info

Track history (hours):
 
Tides and Currents Weather Stations Pressure Air Temp Water Temp Dewpoint Dewpoint Depression Visibility Wind Speed Wind Dir Waves Ship Positions

Father Pat

Owner: Marquette Transportation Company Gulf-Inland, LLC, Jefferson, LA. More information available from US FCC via Universal Licensing System and Coast Guard Vessel Documentation Center.

Last reported at 2015-Jan-31 17:07 UTC. Time now 2015-Feb-01 11:41 UTC.
Position N 29°41' W 091°29'.

Type: Towing. MMSI: 367519320.

Date/timePositionNaut miles runAvg speedWind from/ knotsBaromVisibWave heightAir tempDewpointWater temp
2015-Jan-31 17:07N 29°41' W 091°29'3 4.6
2015-Jan-31 16:29N 29°40' W 091°26'5 5.1
2015-Jan-31 15:34N 29°38' W 091°20'5 5.2
2015-Jan-31 14:34N 29°40' W 091°15'5 4.6
2015-Jan-31 13:34N 29°44' W 091°12'4 4.1
2015-Jan-31 12:33N 29°47' W 091°10'4 4.3
2015-Jan-31 11:31N 29°52' W 091°12'6 3.9
2015-Jan-31 10:06N 29°56' W 091°16'3 4.0
2015-Jan-31 09:18N 29°59' W 091°16'5 0.1
2015-Jan-29 16:21N 29°55' W 091°14'3 3.2
2015-Jan-29 15:26N 29°52' W 091°12'4 4.6
2015-Jan-29 14:33N 29°48' W 091°10'3 3.3
2015-Jan-29 13:33N 29°45' W 091°11'4 3.7
2015-Jan-29 12:33N 29°42' W 091°13'4 4.4
2015-Jan-29 11:33N 29°39' W 091°17'5 5.1
2015-Jan-29 10:33N 29°39' W 091°22'4 4.0
2015-Jan-29 09:33N 29°40' W 091°27'5 5.2
2015-Jan-29 08:33N 29°43' W 091°32'5 5.1
2015-Jan-29 07:33N 29°46' W 091°37'6 5.5
2015-Jan-29 06:27N 29°46' W 091°44'5 5.1
2015-Jan-29 05:33N 29°47' W 091°49'5 5.0
2015-Jan-29 04:33N 29°51' W 091°53'6 6.1
2015-Jan-29 03:33N 29°50' W 091°60'7 6.3
2015-Jan-29 02:29N 29°47' W 092°07'5 4.5
2015-Jan-29 01:27N 29°47' W 092°12'133 4.2
2015-Jan-27 17:33N 29°26' W 094°43'7 2.4
2015-Jan-27 14:33N 29°21' W 094°49'2 2.4
2015-Jan-27 13:33N 29°19' W 094°51'4 3.4
2015-Jan-27 12:27N 29°17' W 094°55'5 5.2
2015-Jan-27 11:24N 29°15' W 095°01'4 5.0
2015-Jan-27 10:33N 29°12' W 095°04'6 5.0
2015-Jan-27 09:16N 29°08' W 095°10'0 0.1
2015-Jan-27 08:24N 29°08' W 095°10'1 1.3
2015-Jan-27 07:32N 29°07' W 095°11'  
Track history (hours):
 
Tides and Currents Weather Stations Pressure Air Temp Water Temp Dewpoint Dewpoint Depression Visibility Wind Speed Wind Dir Waves Ship Positions

Father Pat

Owner: Marquette Transportation Company Gulf-Inland, LLC, Jefferson, LA. More information available from US FCC via Universal Licensing System and Coast Guard Vessel Documentation Center.

Last reported at 2015-Jan-31 17:07 UTC. Time now 2015-Feb-01 11:41 UTC.
Position N 29°41' W 091°29'.

Type: Towing. MMSI: 367519320.

Date/timePositionNaut miles runAvg speedWind from/ knotsBaromVisibWave heightAir tempDewpointWater temp
2015-Jan-31 17:07N 29°41' W 091°29'3 4.6
2015-Jan-31 16:29N 29°40' W 091°26'5 5.1
2015-Jan-31 15:34N 29°38' W 091°20'5 5.2
2015-Jan-31 14:34N 29°40' W 091°15'5 4.6
2015-Jan-31 13:34N 29°44' W 091°12'4 4.1
2015-Jan-31 12:33N 29°47' W 091°10'4 4.3
2015-Jan-31 11:31N 29°52' W 091°12'6 3.9
2015-Jan-31 10:06N 29°56' W 091°16'3 4.0
2015-Jan-31 09:18N 29°59' W 091°16'5 0.1
2015-Jan-29 16:21N 29°55' W 091°14'3 3.2
2015-Jan-29 15:26N 29°52' W 091°12'4 4.6
2015-Jan-29 14:33N 29°48' W 091°10'3 3.3
2015-Jan-29 13:33N 29°45' W 091°11'4 3.7
2015-Jan-29 12:33N 29°42' W 091°13'4 4.4
2015-Jan-29 11:33N 29°39' W 091°17'5 5.1
2015-Jan-29 10:33N 29°39' W 091°22'4 4.0
2015-Jan-29 09:33N 29°40' W 091°27'5 5.2
2015-Jan-29 08:33N 29°43' W 091°32'5 5.1
2015-Jan-29 07:33N 29°46' W 091°37'6 5.5
2015-Jan-29 06:27N 29°46' W 091°44'5 5.1
2015-Jan-29 05:33N 29°47' W 091°49'5 5.0
2015-Jan-29 04:33N 29°51' W 091°53'6 6.1
2015-Jan-29 03:33N 29°50' W 091°60'7 6.3
2015-Jan-29 02:29N 29°47' W 092°07'5 4.5
2015-Jan-29 01:27N 29°47' W 092°12'133 4.2
2015-Jan-27 17:33N 29°26' W 094°43'7 2.4
2015-Jan-27 14:33N 29°21' W 094°49'2 2.4
2015-Jan-27 13:33N 29°19' W 094°51'4 3.4
2015-Jan-27 12:27N 29°17' W 094°55'5 5.2
2015-Jan-27 11:24N 29°15' W 095°01'4 5.0
2015-Jan-27 10:33N 29°12' W 095°04'6 5.0
2015-Jan-27 09:16N 29°08' W 095°10'0 0.1
2015-Jan-27 08:24N 29°08' W 095°10'1 1.3
2015-Jan-27 07:32N 29°07' W 095°11'  

Dump ship's entire track history